Terminal Aerodrome Forecast
Issued by NWS Blacksburg, VA

Current Version | Previous Version | Graphics & Text | Print | Product List | Glossary On
Versions: 1 2 3 4 5 6 7 8 9 10 11 12 13 14 15 16 17 18 19 20 21 22 23 24 25 26 27 28 29 30 31 32 33 34
592
FTUS41 KRNK 230643 AAA
TAFBLF
TAF AMD
KBLF 230643Z 2307/2406 21005KT P6SM -SHRA OVC045
      TEMPO 2307/2309 3SM -SHRA BR OVC025
     FM230900 22010KT P6SM OVC050
     FM231800 24014KT P6SM BKN035
     FM240000 22011KT 3SM -SHRA BKN070=

USA.gov is the U.S. government's official web portal to all federal, state and local government web resources and services.